sensor_id;sensor_type;location;lat;lon;timestamp;P1;durP1;ratioP1;P2;durP2;ratioP2
25948;SDS011;13961;51.178;4.448;2023-07-28T00:01:30;5.20;;;3.33;;
25948;SDS011;13961;51.178;4.448;2023-07-28T00:03:56;4.85;;;3.47;;
25948;SDS011;13961;51.178;4.448;2023-07-28T00:06:22;4.40;;;3.30;;
25948;SDS011;13961;51.178;4.448;2023-07-28T00:08:48;6.72;;;3.30;;
25948;SDS011;13961;51.178;4.448;2023-07-28T00:11:14;5.28;;;3.05;;
25948;SDS011;13961;51.178;4.448;2023-07-28T00:13:41;6.43;;;3.58;;
25948;SDS011;13961;51.178;4.448;2023-07-28T00:16:07;5.68;;;3.03;;
25948;SDS011;13961;51.178;4.448;2023-07-28T00:18:34;3.90;;;3.10;;
25948;SDS011;13961;51.178;4.448;2023-07-28T00:20:59;4.28;;;3.22;;
25948;SDS011;13961;51.178;4.448;2023-07-28T00:23:25;3.42;;;2.97;;
25948;SDS011;13961;51.178;4.448;2023-07-28T00:25:51;5.65;;;3.25;;
25948;SDS011;13961;51.178;4.448;2023-07-28T00:28:16;4.25;;;3.10;;
25948;SDS011;13961;51.178;4.448;2023-07-28T00:30:42;5.47;;;3.47;;
25948;SDS011;13961;51.178;4.448;2023-07-28T00:33:08;3.83;;;2.90;;
25948;SDS011;13961;51.178;4.448;2023-07-28T00:35:35;4.95;;;3.50;;
25948;SDS011;13961;51.178;4.448;2023-07-28T00:38:00;3.40;;;2.95;;
25948;SDS011;13961;51.178;4.448;2023-07-28T00:40:26;5.13;;;3.60;;
25948;SDS011;13961;51.178;4.448;2023-07-28T00:42:52;5.40;;;3.50;;
25948;SDS011;13961;51.178;4.448;2023-07-28T00:45:18;5.85;;;3.47;;
25948;SDS011;13961;51.178;4.448;2023-07-28T00:47:43;4.50;;;3.70;;
25948;SDS011;13961;51.178;4.448;2023-07-28T00:50:09;4.63;;;3.50;;
25948;SDS011;13961;51.178;4.448;2023-07-28T00:52:35;4.25;;;3.17;;
25948;SDS011;13961;51.178;4.448;2023-07-28T00:55:02;4.07;;;3.20;;
25948;SDS011;13961;51.178;4.448;2023-07-28T00:57:27;7.20;;;3.70;;
25948;SDS011;13961;51.178;4.448;2023-07-28T00:59:53;5.85;;;3.70;;
25948;SDS011;13961;51.178;4.448;2023-07-28T01:02:19;6.15;;;4.15;;
25948;SDS011;13961;51.178;4.448;2023-07-28T01:04:45;4.32;;;3.45;;
25948;SDS011;13961;51.178;4.448;2023-07-28T01:07:17;4.10;;;3.70;;
25948;SDS011;13961;51.178;4.448;2023-07-28T01:10:02;6.15;;;4.55;;
25948;SDS011;13961;51.178;4.448;2023-07-28T01:12:33;5.50;;;4.22;;
25948;SDS011;13961;51.178;4.448;2023-07-28T01:14:59;7.30;;;5.30;;
25948;SDS011;13961;51.178;4.448;2023-07-28T01:17:24;6.93;;;6.20;;
25948;SDS011;13961;51.178;4.448;2023-07-28T01:19:51;9.23;;;6.40;;
25948;SDS011;13961;51.178;4.448;2023-07-28T01:27:36;13.35;;;7.70;;
25948;SDS011;13961;51.178;4.448;2023-07-28T01:30:03;10.95;;;7.38;;
25948;SDS011;13961;51.178;4.448;2023-07-28T01:32:28;9.80;;;7.47;;
25948;SDS011;13961;51.178;4.448;2023-07-28T01:34:54;14.65;;;7.57;;
25948;SDS011;13961;51.178;4.448;2023-07-28T01:37:20;10.50;;;7.32;;
25948;SDS011;13961;51.178;4.448;2023-07-28T01:39:46;11.43;;;7.50;;
25948;SDS011;13961;51.178;4.448;2023-07-28T01:42:11;10.93;;;8.05;;
25948;SDS011;13961;51.178;4.448;2023-07-28T01:44:37;9.38;;;7.30;;
25948;SDS011;13961;51.178;4.448;2023-07-28T01:47:03;11.05;;;7.95;;
25948;SDS011;13961;51.178;4.448;2023-07-28T01:49:28;10.20;;;7.30;;
25948;SDS011;13961;51.178;4.448;2023-07-28T01:51:54;10.63;;;7.75;;
25948;SDS011;13961;51.178;4.448;2023-07-28T01:54:19;10.68;;;7.10;;
25948;SDS011;13961;51.178;4.448;2023-07-28T01:56:46;9.98;;;6.75;;
25948;SDS011;13961;51.178;4.448;2023-07-28T01:59:12;13.00;;;7.32;;
25948;SDS011;13961;51.178;4.448;2023-07-28T02:01:39;11.07;;;7.22;;
25948;SDS011;13961;51.178;4.448;2023-07-28T02:04:05;13.63;;;8.20;;
25948;SDS011;13961;51.178;4.448;2023-07-28T02:06:31;9.23;;;6.70;;
25948;SDS011;13961;51.178;4.448;2023-07-28T02:08:57;8.35;;;6.57;;
25948;SDS011;13961;51.178;4.448;2023-07-28T02:11:22;12.40;;;6.95;;
25948;SDS011;13961;51.178;4.448;2023-07-28T02:13:48;9.70;;;6.63;;
25948;SDS011;13961;51.178;4.448;2023-07-28T02:16:13;10.88;;;6.95;;
25948;SDS011;13961;51.178;4.448;2023-07-28T02:18:39;9.80;;;6.60;;
25948;SDS011;13961;51.178;4.448;2023-07-28T02:21:05;10.50;;;6.68;;
25948;SDS011;13961;51.178;4.448;2023-07-28T02:23:33;10.57;;;6.63;;
25948;SDS011;13961;51.178;4.448;2023-07-28T02:25:59;11.65;;;6.57;;
25948;SDS011;13961;51.178;4.448;2023-07-28T02:28:26;11.30;;;6.30;;
25948;SDS011;13961;51.178;4.448;2023-07-28T02:30:51;9.20;;;6.13;;
25948;SDS011;13961;51.178;4.448;2023-07-28T02:33:17;11.38;;;7.20;;
25948;SDS011;13961;51.178;4.448;2023-07-28T02:35:43;8.48;;;6.07;;
25948;SDS011;13961;51.178;4.448;2023-07-28T02:38:08;8.30;;;6.10;;
25948;SDS011;13961;51.178;4.448;2023-07-28T02:40:34;9.88;;;5.97;;
25948;SDS011;13961;51.178;4.448;2023-07-28T02:43:00;9.98;;;6.53;;
25948;SDS011;13961;51.178;4.448;2023-07-28T02:45:25;8.82;;;6.03;;
25948;SDS011;13961;51.178;4.448;2023-07-28T02:47:51;7.88;;;5.60;;
25948;SDS011;13961;51.178;4.448;2023-07-28T02:50:16;7.55;;;5.97;;
25948;SDS011;13961;51.178;4.448;2023-07-28T02:52:42;7.65;;;6.07;;
25948;SDS011;13961;51.178;4.448;2023-07-28T02:55:08;7.93;;;5.85;;
25948;SDS011;13961;51.178;4.448;2023-07-28T02:57:33;9.13;;;5.70;;
25948;SDS011;13961;51.178;4.448;2023-07-28T02:59:59;8.73;;;5.85;;
25948;SDS011;13961;51.178;4.448;2023-07-28T03:02:25;9.63;;;5.20;;
25948;SDS011;13961;51.178;4.448;2023-07-28T03:04:50;6.45;;;5.07;;
25948;SDS011;13961;51.178;4.448;2023-07-28T03:07:16;8.43;;;5.20;;
25948;SDS011;13961;51.178;4.448;2023-07-28T03:09:42;7.38;;;4.97;;
25948;SDS011;13961;51.178;4.448;2023-07-28T03:12:08;7.50;;;4.78;;
25948;SDS011;13961;51.178;4.448;2023-07-28T03:14:33;5.28;;;4.35;;
25948;SDS011;13961;51.178;4.448;2023-07-28T03:16:59;5.35;;;4.85;;
25948;SDS011;13961;51.178;4.448;2023-07-28T03:19:25;6.50;;;4.65;;
25948;SDS011;13961;51.178;4.448;2023-07-28T03:21:50;6.07;;;4.72;;
25948;SDS011;13961;51.178;4.448;2023-07-28T03:24:16;6.32;;;4.57;;
25948;SDS011;13961;51.178;4.448;2023-07-28T03:26:42;5.30;;;4.57;;
25948;SDS011;13961;51.178;4.448;2023-07-28T03:29:07;7.45;;;4.72;;
25948;SDS011;13961;51.178;4.448;2023-07-28T03:31:33;7.22;;;4.55;;
25948;SDS011;13961;51.178;4.448;2023-07-28T03:34:01;8.57;;;4.53;;
25948;SDS011;13961;51.178;4.448;2023-07-28T03:36:28;7.43;;;4.57;;
25948;SDS011;13961;51.178;4.448;2023-07-28T03:38:53;5.00;;;4.30;;
25948;SDS011;13961;51.178;4.448;2023-07-28T03:41:19;6.93;;;4.45;;
25948;SDS011;13961;51.178;4.448;2023-07-28T03:43:45;5.63;;;4.07;;
25948;SDS011;13961;51.178;4.448;2023-07-28T03:46:11;4.93;;;3.85;;
25948;SDS011;13961;51.178;4.448;2023-07-28T03:48:37;5.65;;;3.85;;
25948;SDS011;13961;51.178;4.448;2023-07-28T03:51:03;4.55;;;3.63;;
25948;SDS011;13961;51.178;4.448;2023-07-28T03:53:29;5.40;;;3.70;;
25948;SDS011;13961;51.178;4.448;2023-07-28T03:55:55;5.35;;;3.38;;
25948;SDS011;13961;51.178;4.448;2023-07-28T03:58:26;5.15;;;3.70;;
25948;SDS011;13961;51.178;4.448;2023-07-28T04:00:52;4.40;;;3.72;;
25948;SDS011;13961;51.178;4.448;2023-07-28T04:03:18;4.97;;;3.72;;
25948;SDS011;13961;51.178;4.448;2023-07-28T04:05:44;5.00;;;3.63;;
25948;SDS011;13961;51.178;4.448;2023-07-28T04:08:10;4.28;;;3.50;;
25948;SDS011;13961;51.178;4.448;2023-07-28T04:10:35;4.25;;;3.42;;
25948;SDS011;13961;51.178;4.448;2023-07-28T04:13:01;5.93;;;3.17;;
25948;SDS011;13961;51.178;4.448;2023-07-28T04:15:27;5.65;;;3.30;;
25948;SDS011;13961;51.178;4.448;2023-07-28T04:17:52;3.72;;;3.10;;
25948;SDS011;13961;51.178;4.448;2023-07-28T04:20:18;4.30;;;3.55;;
25948;SDS011;13961;51.178;4.448;2023-07-28T04:22:43;5.25;;;3.25;;
25948;SDS011;13961;51.178;4.448;2023-07-28T04:25:09;5.70;;;3.50;;
25948;SDS011;13961;51.178;4.448;2023-07-28T04:27:35;7.60;;;3.20;;
25948;SDS011;13961;51.178;4.448;2023-07-28T04:30:00;4.07;;;3.00;;
25948;SDS011;13961;51.178;4.448;2023-07-28T04:32:26;6.32;;;3.08;;
25948;SDS011;13961;51.178;4.448;2023-07-28T04:34:52;3.20;;;2.90;;
25948;SDS011;13961;51.178;4.448;2023-07-28T04:37:18;5.30;;;2.97;;
25948;SDS011;13961;51.178;4.448;2023-07-28T04:39:44;5.63;;;3.30;;
25948;SDS011;13961;51.178;4.448;2023-07-28T04:42:10;5.35;;;3.00;;
25948;SDS011;13961;51.178;4.448;2023-07-28T04:44:37;4.13;;;2.92;;
25948;SDS011;13961;51.178;4.448;2023-07-28T04:47:06;4.28;;;2.78;;
25948;SDS011;13961;51.178;4.448;2023-07-28T04:49:32;3.70;;;2.65;;
25948;SDS011;13961;51.178;4.448;2023-07-28T04:51:58;3.30;;;3.00;;
25948;SDS011;13961;51.178;4.448;2023-07-28T04:54:24;3.03;;;2.80;;
25948;SDS011;13961;51.178;4.448;2023-07-28T04:56:49;2.88;;;2.67;;
25948;SDS011;13961;51.178;4.448;2023-07-28T04:59:19;3.22;;;2.92;;
25948;SDS011;13961;51.178;4.448;2023-07-28T05:01:44;4.47;;;2.90;;
25948;SDS011;13961;51.178;4.448;2023-07-28T05:04:10;5.22;;;3.47;;
25948;SDS011;13961;51.178;4.448;2023-07-28T05:06:36;4.15;;;3.22;;
25948;SDS011;13961;51.178;4.448;2023-07-28T05:09:01;4.70;;;3.10;;
25948;SDS011;13961;51.178;4.448;2023-07-28T05:11:27;3.67;;;3.33;;
25948;SDS011;13961;51.178;4.448;2023-07-28T05:13:53;3.90;;;3.45;;
25948;SDS011;13961;51.178;4.448;2023-07-28T05:16:18;4.85;;;4.07;;
25948;SDS011;13961;51.178;4.448;2023-07-28T05:18:44;4.30;;;3.70;;
25948;SDS011;13961;51.178;4.448;2023-07-28T05:21:09;4.90;;;3.50;;
25948;SDS011;13961;51.178;4.448;2023-07-28T05:23:35;5.28;;;3.30;;
25948;SDS011;13961;51.178;4.448;2023-07-28T05:26:00;6.00;;;3.90;;
25948;SDS011;13961;51.178;4.448;2023-07-28T05:28:26;3.65;;;3.33;;
25948;SDS011;13961;51.178;4.448;2023-07-28T05:30:52;4.38;;;3.33;;
25948;SDS011;13961;51.178;4.448;2023-07-28T05:33:17;6.22;;;3.78;;
25948;SDS011;13961;51.178;4.448;2023-07-28T05:35:44;5.53;;;4.10;;
25948;SDS011;13961;51.178;4.448;2023-07-28T05:38:10;3.90;;;3.60;;
25948;SDS011;13961;51.178;4.448;2023-07-28T05:40:35;3.85;;;3.47;;
25948;SDS011;13961;51.178;4.448;2023-07-28T05:43:01;4.20;;;3.70;;
25948;SDS011;13961;51.178;4.448;2023-07-28T05:45:28;4.00;;;3.63;;
25948;SDS011;13961;51.178;4.448;2023-07-28T05:47:53;5.97;;;3.90;;
25948;SDS011;13961;51.178;4.448;2023-07-28T05:50:19;4.82;;;4.20;;
25948;SDS011;13961;51.178;4.448;2023-07-28T05:52:45;5.25;;;4.30;;
25948;SDS011;13961;51.178;4.448;2023-07-28T05:55:12;4.30;;;3.80;;
25948;SDS011;13961;51.178;4.448;2023-07-28T05:57:37;5.43;;;4.25;;
25948;SDS011;13961;51.178;4.448;2023-07-28T06:00:03;5.85;;;3.90;;
25948;SDS011;13961;51.178;4.448;2023-07-28T06:02:29;5.60;;;3.67;;
25948;SDS011;13961;51.178;4.448;2023-07-28T06:04:55;4.30;;;3.90;;
25948;SDS011;13961;51.178;4.448;2023-07-28T06:07:21;3.63;;;3.33;;
25948;SDS011;13961;51.178;4.448;2023-07-28T06:09:46;5.97;;;3.80;;
25948;SDS011;13961;51.178;4.448;2023-07-28T06:12:12;4.85;;;3.50;;
25948;SDS011;13961;51.178;4.448;2023-07-28T06:14:38;5.65;;;3.75;;
25948;SDS011;13961;51.178;4.448;2023-07-28T06:17:04;3.70;;;3.38;;
25948;SDS011;13961;51.178;4.448;2023-07-28T06:19:29;3.65;;;3.28;;
25948;SDS011;13961;51.178;4.448;2023-07-28T06:21:55;5.97;;;3.30;;
25948;SDS011;13961;51.178;4.448;2023-07-28T06:24:21;3.42;;;3.13;;
25948;SDS011;13961;51.178;4.448;2023-07-28T06:26:46;3.40;;;3.10;;
25948;SDS011;13961;51.178;4.448;2023-07-28T06:29:12;3.17;;;2.97;;
25948;SDS011;13961;51.178;4.448;2023-07-28T06:31:38;3.15;;;2.83;;
25948;SDS011;13961;51.178;4.448;2023-07-28T06:34:04;4.03;;;3.00;;
25948;SDS011;13961;51.178;4.448;2023-07-28T06:36:30;5.03;;;2.80;;
25948;SDS011;13961;51.178;4.448;2023-07-28T06:38:56;4.00;;;3.00;;
25948;SDS011;13961;51.178;4.448;2023-07-28T06:41:21;3.25;;;2.42;;
25948;SDS011;13961;51.178;4.448;2023-07-28T06:43:47;2.45;;;2.20;;
25948;SDS011;13961;51.178;4.448;2023-07-28T06:46:16;2.72;;;2.53;;
25948;SDS011;13961;51.178;4.448;2023-07-28T06:48:42;4.90;;;2.33;;
25948;SDS011;13961;51.178;4.448;2023-07-28T06:51:08;2.75;;;2.10;;
25948;SDS011;13961;51.178;4.448;2023-07-28T06:53:33;2.30;;;2.10;;
25948;SDS011;13961;51.178;4.448;2023-07-28T06:56:02;3.25;;;2.00;;
25948;SDS011;13961;51.178;4.448;2023-07-28T06:58:28;2.30;;;2.10;;
25948;SDS011;13961;51.178;4.448;2023-07-28T07:00:53;2.13;;;1.90;;
25948;SDS011;13961;51.178;4.448;2023-07-28T07:03:21;2.15;;;1.60;;
25948;SDS011;13961;51.178;4.448;2023-07-28T07:05:48;2.20;;;2.00;;
25948;SDS011;13961;51.178;4.448;2023-07-28T07:08:13;4.38;;;2.00;;
25948;SDS011;13961;51.178;4.448;2023-07-28T07:10:39;2.38;;;2.00;;
25948;SDS011;13961;51.178;4.448;2023-07-28T07:13:05;1.77;;;1.60;;
25948;SDS011;13961;51.178;4.448;2023-07-28T07:15:30;2.25;;;1.77;;
25948;SDS011;13961;51.178;4.448;2023-07-28T07:18:00;3.22;;;1.70;;
25948;SDS011;13961;51.178;4.448;2023-07-28T07:20:26;2.28;;;1.88;;
25948;SDS011;13961;51.178;4.448;2023-07-28T07:22:51;1.77;;;1.67;;
25948;SDS011;13961;51.178;4.448;2023-07-28T07:25:18;2.70;;;1.60;;
25948;SDS011;13961;51.178;4.448;2023-07-28T07:27:45;1.30;;;1.20;;
25948;SDS011;13961;51.178;4.448;2023-07-28T07:30:10;1.27;;;1.20;;
25948;SDS011;13961;51.178;4.448;2023-07-28T07:32:36;1.10;;;1.00;;
25948;SDS011;13961;51.178;4.448;2023-07-28T07:35:02;5.03;;;1.00;;
25948;SDS011;13961;51.178;4.448;2023-07-28T07:37:28;1.10;;;0.90;;
25948;SDS011;13961;51.178;4.448;2023-07-28T07:39:53;1.92;;;1.10;;
25948;SDS011;13961;51.178;4.448;2023-07-28T07:42:20;1.05;;;1.02;;
25948;SDS011;13961;51.178;4.448;2023-07-28T07:44:45;0.93;;;0.70;;
25948;SDS011;13961;51.178;4.448;2023-07-28T07:47:15;2.80;;;0.93;;
25948;SDS011;13961;51.178;4.448;2023-07-28T07:49:41;0.93;;;0.93;;
25948;SDS011;13961;51.178;4.448;2023-07-28T07:52:07;1.15;;;0.90;;
25948;SDS011;13961;51.178;4.448;2023-07-28T07:54:37;0.90;;;0.70;;
25948;SDS011;13961;51.178;4.448;2023-07-28T07:57:03;0.77;;;0.75;;
25948;SDS011;13961;51.178;4.448;2023-07-28T07:59:30;1.40;;;0.70;;
25948;SDS011;13961;51.178;4.448;2023-07-28T08:01:58;1.52;;;0.90;;
25948;SDS011;13961;51.178;4.448;2023-07-28T08:04:25;2.10;;;0.90;;
25948;SDS011;13961;51.178;4.448;2023-07-28T08:06:53;0.60;;;0.60;;
25948;SDS011;13961;51.178;4.448;2023-07-28T08:09:19;0.75;;;0.65;;
25948;SDS011;13961;51.178;4.448;2023-07-28T08:11:44;2.17;;;1.00;;
25948;SDS011;13961;51.178;4.448;2023-07-28T08:14:10;1.77;;;0.80;;
25948;SDS011;13961;51.178;4.448;2023-07-28T08:16:36;0.90;;;0.90;;
25948;SDS011;13961;51.178;4.448;2023-07-28T08:19:01;1.13;;;0.93;;
25948;SDS011;13961;51.178;4.448;2023-07-28T08:21:27;1.35;;;0.90;;
25948;SDS011;13961;51.178;4.448;2023-07-28T08:23:52;1.40;;;1.02;;
25948;SDS011;13961;51.178;4.448;2023-07-28T08:26:18;1.10;;;1.00;;
25948;SDS011;13961;51.178;4.448;2023-07-28T08:28:44;3.05;;;0.90;;
25948;SDS011;13961;51.178;4.448;2023-07-28T08:31:09;1.25;;;1.00;;
25948;SDS011;13961;51.178;4.448;2023-07-28T08:33:36;1.45;;;1.08;;
25948;SDS011;13961;51.178;4.448;2023-07-28T08:36:02;1.15;;;1.10;;
25948;SDS011;13961;51.178;4.448;2023-07-28T08:38:28;1.75;;;1.02;;
25948;SDS011;13961;51.178;4.448;2023-07-28T08:40:53;1.00;;;1.00;;
25948;SDS011;13961;51.178;4.448;2023-07-28T08:43:21;0.90;;;0.90;;
25948;SDS011;13961;51.178;4.448;2023-07-28T08:45:47;3.13;;;1.13;;
25948;SDS011;13961;51.178;4.448;2023-07-28T08:48:12;1.85;;;1.20;;
25948;SDS011;13961;51.178;4.448;2023-07-28T08:50:38;1.45;;;1.17;;
25948;SDS011;13961;51.178;4.448;2023-07-28T08:53:06;1.50;;;1.40;;
25948;SDS011;13961;51.178;4.448;2023-07-28T08:55:31;1.10;;;1.10;;
25948;SDS011;13961;51.178;4.448;2023-07-28T08:58:13;1.88;;;1.30;;
25948;SDS011;13961;51.178;4.448;2023-07-28T09:00:40;1.73;;;1.17;;
25948;SDS011;13961;51.178;4.448;2023-07-28T09:03:09;1.30;;;1.20;;
25948;SDS011;13961;51.178;4.448;2023-07-28T09:05:36;3.50;;;1.30;;
25948;SDS011;13961;51.178;4.448;2023-07-28T09:08:02;4.45;;;1.70;;
25948;SDS011;13961;51.178;4.448;2023-07-28T09:10:43;2.25;;;1.13;;
25948;SDS011;13961;51.178;4.448;2023-07-28T09:13:14;1.65;;;1.30;;
25948;SDS011;13961;51.178;4.448;2023-07-28T09:15:41;1.80;;;1.20;;
25948;SDS011;13961;51.178;4.448;2023-07-28T09:18:07;2.45;;;1.15;;
25948;SDS011;13961;51.178;4.448;2023-07-28T09:20:35;3.03;;;1.20;;
25948;SDS011;13961;51.178;4.448;2023-07-28T09:23:02;1.90;;;1.25;;
25948;SDS011;13961;51.178;4.448;2023-07-28T09:25:29;3.55;;;1.20;;
25948;SDS011;13961;51.178;4.448;2023-07-28T09:27:55;3.72;;;1.58;;
25948;SDS011;13961;51.178;4.448;2023-07-28T09:30:23;1.40;;;1.27;;
25948;SDS011;13961;51.178;4.448;2023-07-28T09:32:50;1.38;;;1.27;;
25948;SDS011;13961;51.178;4.448;2023-07-28T09:35:19;3.35;;;1.17;;
25948;SDS011;13961;51.178;4.448;2023-07-28T09:37:47;3.28;;;1.65;;
25948;SDS011;13961;51.178;4.448;2023-07-28T09:40:17;2.25;;;1.52;;
25948;SDS011;13961;51.178;4.448;2023-07-28T09:42:45;1.50;;;1.08;;
25948;SDS011;13961;51.178;4.448;2023-07-28T09:45:14;1.40;;;1.25;;
25948;SDS011;13961;51.178;4.448;2023-07-28T09:47:43;1.98;;;1.20;;
25948;SDS011;13961;51.178;4.448;2023-07-28T09:50:11;1.65;;;0.93;;
25948;SDS011;13961;51.178;4.448;2023-07-28T09:52:42;0.98;;;0.90;;
25948;SDS011;13961;51.178;4.448;2023-07-28T09:55:10;1.95;;;0.98;;
25948;SDS011;13961;51.178;4.448;2023-07-28T09:57:39;3.88;;;1.10;;
25948;SDS011;13961;51.178;4.448;2023-07-28T10:00:10;2.85;;;1.00;;
25948;SDS011;13961;51.178;4.448;2023-07-28T10:02:38;1.20;;;0.98;;
25948;SDS011;13961;51.178;4.448;2023-07-28T10:05:05;3.40;;;0.90;;
25948;SDS011;13961;51.178;4.448;2023-07-28T10:07:35;0.80;;;0.80;;
25948;SDS011;13961;51.178;4.448;2023-07-28T10:10:05;1.02;;;0.90;;
25948;SDS011;13961;51.178;4.448;2023-07-28T10:12:39;1.00;;;0.77;;
25948;SDS011;13961;51.178;4.448;2023-07-28T10:15:15;3.83;;;1.08;;
25948;SDS011;13961;51.178;4.448;2023-07-28T10:17:46;1.13;;;1.00;;
25948;SDS011;13961;51.178;4.448;2023-07-28T10:20:37;0.95;;;0.95;;
25948;SDS011;13961;51.178;4.448;2023-07-28T10:23:23;3.15;;;1.00;;
25948;SDS011;13961;51.178;4.448;2023-07-28T10:25:56;1.02;;;1.00;;
25948;SDS011;13961;51.178;4.448;2023-07-28T10:28:28;1.45;;;1.00;;
25948;SDS011;13961;51.178;4.448;2023-07-28T10:30:58;1.25;;;1.10;;
25948;SDS011;13961;51.178;4.448;2023-07-28T10:33:37;1.50;;;1.40;;
25948;SDS011;13961;51.178;4.448;2023-07-28T10:38:42;1.50;;;1.30;;
25948;SDS011;13961;51.178;4.448;2023-07-28T10:41:28;4.78;;;1.70;;
25948;SDS011;13961;51.178;4.448;2023-07-28T10:43:55;2.10;;;1.42;;
25948;SDS011;13961;51.178;4.448;2023-07-28T10:46:21;1.60;;;1.50;;
25948;SDS011;13961;51.178;4.448;2023-07-28T10:48:49;2.67;;;1.60;;
25948;SDS011;13961;51.178;4.448;2023-07-28T10:51:25;1.85;;;1.67;;
25948;SDS011;13961;51.178;4.448;2023-07-28T10:53:55;2.78;;;1.90;;
25948;SDS011;13961;51.178;4.448;2023-07-28T10:56:23;3.67;;;2.33;;
25948;SDS011;13961;51.178;4.448;2023-07-28T10:59:00;3.70;;;1.90;;
25948;SDS011;13961;51.178;4.448;2023-07-28T11:01:39;2.88;;;1.60;;
25948;SDS011;13961;51.178;4.448;2023-07-28T11:04:06;3.08;;;1.90;;
25948;SDS011;13961;51.178;4.448;2023-07-28T11:06:40;4.40;;;2.00;;
25948;SDS011;13961;51.178;4.448;2023-07-28T11:09:08;2.47;;;1.70;;
25948;SDS011;13961;51.178;4.448;2023-07-28T11:11:35;2.08;;;1.58;;
25948;SDS011;13961;51.178;4.448;2023-07-28T11:14:02;2.22;;;1.88;;
25948;SDS011;13961;51.178;4.448;2023-07-28T11:16:30;2.45;;;1.75;;
25948;SDS011;13961;51.178;4.448;2023-07-28T11:18:57;2.97;;;2.05;;
25948;SDS011;13961;51.178;4.448;2023-07-28T11:21:27;2.83;;;2.30;;
25948;SDS011;13961;51.178;4.448;2023-07-28T11:23:52;2.50;;;1.88;;
25948;SDS011;13961;51.178;4.448;2023-07-28T11:26:19;4.40;;;2.15;;
25948;SDS011;13961;51.178;4.448;2023-07-28T11:28:47;3.20;;;1.70;;
25948;SDS011;13961;51.178;4.448;2023-07-28T11:31:13;3.45;;;1.60;;
25948;SDS011;13961;51.178;4.448;2023-07-28T11:33:39;3.28;;;1.55;;
25948;SDS011;13961;51.178;4.448;2023-07-28T11:36:05;2.78;;;1.60;;
25948;SDS011;13961;51.178;4.448;2023-07-28T11:38:31;1.75;;;1.65;;
25948;SDS011;13961;51.178;4.448;2023-07-28T11:40:58;3.08;;;1.40;;
25948;SDS011;13961;51.178;4.448;2023-07-28T11:43:25;2.58;;;1.40;;
25948;SDS011;13961;51.178;4.448;2023-07-28T11:45:51;1.40;;;1.20;;
25948;SDS011;13961;51.178;4.448;2023-07-28T11:48:16;1.98;;;1.10;;
25948;SDS011;13961;51.178;4.448;2023-07-28T11:50:43;1.00;;;0.93;;
25948;SDS011;13961;51.178;4.448;2023-07-28T11:53:10;1.00;;;0.90;;
25948;SDS011;13961;51.178;4.448;2023-07-28T11:55:36;2.75;;;1.20;;
25948;SDS011;13961;51.178;4.448;2023-07-28T11:58:07;1.20;;;0.80;;
25948;SDS011;13961;51.178;4.448;2023-07-28T12:00:37;1.00;;;0.80;;
25948;SDS011;13961;51.178;4.448;2023-07-28T12:03:06;1.00;;;0.80;;
25948;SDS011;13961;51.178;4.448;2023-07-28T12:05:37;1.42;;;0.88;;
25948;SDS011;13961;51.178;4.448;2023-07-28T12:08:34;1.23;;;0.80;;
25948;SDS011;13961;51.178;4.448;2023-07-28T12:11:01;3.15;;;0.70;;
25948;SDS011;13961;51.178;4.448;2023-07-28T12:13:27;1.05;;;0.75;;
25948;SDS011;13961;51.178;4.448;2023-07-28T12:15:54;1.65;;;0.90;;
25948;SDS011;13961;51.178;4.448;2023-07-28T12:18:19;0.88;;;0.80;;
25948;SDS011;13961;51.178;4.448;2023-07-28T12:20:46;1.25;;;0.90;;
25948;SDS011;13961;51.178;4.448;2023-07-28T12:23:15;2.42;;;1.10;;
25948;SDS011;13961;51.178;4.448;2023-07-28T12:25:42;0.93;;;0.88;;
25948;SDS011;13961;51.178;4.448;2023-07-28T12:28:08;0.70;;;0.70;;
25948;SDS011;13961;51.178;4.448;2023-07-28T12:30:35;1.20;;;1.10;;
25948;SDS011;13961;51.178;4.448;2023-07-28T12:33:02;2.13;;;1.00;;
25948;SDS011;13961;51.178;4.448;2023-07-28T12:35:29;1.98;;;1.10;;
25948;SDS011;13961;51.178;4.448;2023-07-28T12:37:58;2.72;;;0.85;;
25948;SDS011;13961;51.178;4.448;2023-07-28T12:40:30;1.42;;;0.95;;
25948;SDS011;13961;51.178;4.448;2023-07-28T12:42:57;2.10;;;1.10;;
25948;SDS011;13961;51.178;4.448;2023-07-28T12:45:24;1.00;;;0.90;;
25948;SDS011;13961;51.178;4.448;2023-07-28T12:47:54;1.40;;;0.93;;
25948;SDS011;13961;51.178;4.448;2023-07-28T12:50:20;1.05;;;0.90;;
25948;SDS011;13961;51.178;4.448;2023-07-28T12:52:47;1.70;;;1.10;;
25948;SDS011;13961;51.178;4.448;2023-07-28T12:55:13;1.67;;;1.33;;
25948;SDS011;13961;51.178;4.448;2023-07-28T12:57:40;1.10;;;1.00;;
25948;SDS011;13961;51.178;4.448;2023-07-28T13:00:06;2.03;;;1.20;;
25948;SDS011;13961;51.178;4.448;2023-07-28T13:02:40;2.15;;;1.10;;
25948;SDS011;13961;51.178;4.448;2023-07-28T13:05:07;1.35;;;1.23;;
25948;SDS011;13961;51.178;4.448;2023-07-28T13:07:35;2.00;;;1.45;;
25948;SDS011;13961;51.178;4.448;2023-07-28T13:10:02;2.75;;;1.17;;
25948;SDS011;13961;51.178;4.448;2023-07-28T13:12:28;1.95;;;1.10;;
25948;SDS011;13961;51.178;4.448;2023-07-28T13:14:54;1.00;;;0.82;;
25948;SDS011;13961;51.178;4.448;2023-07-28T13:17:20;3.03;;;1.00;;
25948;SDS011;13961;51.178;4.448;2023-07-28T13:19:47;1.70;;;1.10;;
25948;SDS011;13961;51.178;4.448;2023-07-28T13:22:12;2.97;;;1.10;;
25948;SDS011;13961;51.178;4.448;2023-07-28T13:24:39;1.20;;;1.10;;
25948;SDS011;13961;51.178;4.448;2023-07-28T13:27:06;2.10;;;1.38;;
25948;SDS011;13961;51.178;4.448;2023-07-28T13:29:32;1.52;;;1.20;;
25948;SDS011;13961;51.178;4.448;2023-07-28T13:31:58;2.03;;;1.27;;
25948;SDS011;13961;51.178;4.448;2023-07-28T13:34:25;5.22;;;1.40;;
25948;SDS011;13961;51.178;4.448;2023-07-28T13:36:55;4.30;;;1.20;;
25948;SDS011;13961;51.178;4.448;2023-07-28T13:39:21;1.77;;;0.95;;
25948;SDS011;13961;51.178;4.448;2023-07-28T13:41:47;2.53;;;1.10;;
25948;SDS011;13961;51.178;4.448;2023-07-28T13:44:13;1.58;;;1.00;;
25948;SDS011;13961;51.178;4.448;2023-07-28T13:46:39;0.90;;;0.90;;
25948;SDS011;13961;51.178;4.448;2023-07-28T13:49:04;1.33;;;1.00;;
25948;SDS011;13961;51.178;4.448;2023-07-28T13:51:30;2.08;;;0.85;;
25948;SDS011;13961;51.178;4.448;2023-07-28T13:53:57;1.13;;;0.90;;
25948;SDS011;13961;51.178;4.448;2023-07-28T13:56:22;1.92;;;1.05;;
25948;SDS011;13961;51.178;4.448;2023-07-28T13:58:48;1.35;;;0.77;;
25948;SDS011;13961;51.178;4.448;2023-07-28T14:01:14;1.95;;;0.90;;
25948;SDS011;13961;51.178;4.448;2023-07-28T14:03:40;2.08;;;0.95;;
25948;SDS011;13961;51.178;4.448;2023-07-28T14:06:07;1.75;;;0.90;;
25948;SDS011;13961;51.178;4.448;2023-07-28T14:08:33;0.95;;;0.95;;
25948;SDS011;13961;51.178;4.448;2023-07-28T14:10:58;1.90;;;1.13;;
25948;SDS011;13961;51.178;4.448;2023-07-28T14:13:24;1.73;;;1.13;;
25948;SDS011;13961;51.178;4.448;2023-07-28T14:15:50;1.17;;;0.75;;
25948;SDS011;13961;51.178;4.448;2023-07-28T14:18:16;1.10;;;1.00;;
25948;SDS011;13961;51.178;4.448;2023-07-28T14:20:43;1.75;;;1.23;;
25948;SDS011;13961;51.178;4.448;2023-07-28T14:23:24;1.00;;;0.98;;
25948;SDS011;13961;51.178;4.448;2023-07-28T14:25:52;1.90;;;1.17;;
25948;SDS011;13961;51.178;4.448;2023-07-28T14:28:18;1.48;;;1.10;;
25948;SDS011;13961;51.178;4.448;2023-07-28T14:30:44;1.38;;;1.10;;
25948;SDS011;13961;51.178;4.448;2023-07-28T14:33:14;1.45;;;0.90;;
25948;SDS011;13961;51.178;4.448;2023-07-28T14:35:41;1.88;;;1.10;;
25948;SDS011;13961;51.178;4.448;2023-07-28T14:38:11;2.15;;;1.25;;
25948;SDS011;13961;51.178;4.448;2023-07-28T14:40:38;2.67;;;1.23;;
25948;SDS011;13961;51.178;4.448;2023-07-28T14:43:05;2.45;;;1.20;;
25948;SDS011;13961;51.178;4.448;2023-07-28T14:45:33;1.23;;;1.13;;
25948;SDS011;13961;51.178;4.448;2023-07-28T14:47:59;1.92;;;1.13;;
25948;SDS011;13961;51.178;4.448;2023-07-28T14:50:26;1.63;;;1.10;;
25948;SDS011;13961;51.178;4.448;2023-07-28T14:52:52;1.17;;;1.08;;
25948;SDS011;13961;51.178;4.448;2023-07-28T14:55:18;1.90;;;1.15;;